Harrisburg, PA (17123)

12:30 PM EST on February 09, 2016 (GMT -0500)
EMRO Memorial Observatory | | Change Station
CLOSE
Current Station
Personal Weather Station
Location: Camp Hill, PA
Elevation: 400 ft
Nearby Weather Stations

Elev 400 ft 40.24 °N, 76.92 °W | Updated 11 seconds ago

Snow
Snow
34.5 °F
Feels Like 34 °F
N
0.0
Wind Variable Wind from SE
Gusts 0.0 mph

Today
High -- | Low -- °F
--% Chance of Precip.
Yesterday
High -- | Low -- °F
Precip. -- in
Pressure 29.56 in
Visibility 0.2 miles
Clouds
Windchill 34 °F
Dew Point 20 °F
Humidity 54%
Rainfall 0.00 in
Snow Depth Not available.
7:08 AM 5:35 PM
New Moon, 2% visible
SPECI KMDT 091716Z 00000KT 1/4SM R13/1600V2000FT +SN FZFG VV006 M01/M02 A2956 RMK AO2 TWR VIS 3/4 P0003 T10061017
Pressure 29.56 in
Visibility 0.2 miles
Clouds
Windchill 34 °F
Dew Point 20 °F
Humidity 54%
Rainfall 0.00 in
Snow Depth Not available.
7:08 AM 5:35 PM
New Moon, 2% visible
SPECI KMDT 091716Z 00000KT 1/4SM R13/1600V2000FT +SN FZFG VV006 M01/M02 A2956 RMK AO2 TWR VIS 3/4 P0003 T10061017

10-Day Weather Forecast

Almanac

Astronomy

Feb. 09, 2016 Rise Set
Actual Time
Civil Twilight
Nautical Twilight
Astronomical Twilight
Moon
Length of Visible Light
Length of Day
Tomorrow will be .
, % of the Moon is Illuminated

Today's Extremes

State Highs State Lows

Community

WunderPhotos

Upload Photos

1,891,637 photos uploaded!

WunderBlog® & News

Nearby

Air Quality

  Air Quality AQ Index Pollutant
Not available.

Snow Depth

Station Depth Elevation

Earthquake Activity

City Distance Mag. Time & Date
Minimum magnitude displayed is 2.5.

Coastal Water Temperatures

Place Temperature

Stations

Nearby Weather Stations

Station Location Temp. Windchill Dew Point Humidity Wind Precip. Elev Updated Type
                   

Watches & Warnings

Winter Weather Advisory
Issued: 3:56 AM EST Feb. 9, 2016 – National Weather Service

... Winter Weather Advisory now in effect until 1 am EST
Wednesday...

* snow accumulations... 2 to 5 inches. The higher amounts will be
in the higher elevations and lower amounts will occur in the
valleys... especially around cities.

* Timing... snow will fall intermittently into the late evening.

* Impacts... untreated roads will likely become snow covered and
hazardous. Some areas will see the snow melt as it falls during
the day since the temperature will hover within a degree or two
of freezing.

Precautionary/preparedness actions...

Hazardous winter weather conditions are expected or occurring.
Use caution if traveling. For the latest weather information... go
to weather.Gov/statecollege or monitor NOAA Weather Radio.

Report snow or ice accumulation to the National Weather Service
State College by sending an email to ctp.Stormreports@noaa.Gov...
posting to the NWS State College facebook Page... or tweet
@nwsstatecollege with the hashtag c... T... p... W... x.